Time;durP1;ratioP1;P1;durP2;ratioP2;P2;SDS_P1;SDS_P2;PMS_P1;PMS_P2;Temp;Humidity;BMP_temperature;BMP_pressure;BME280_temperature;BME280_humidity;BME280_pressure;Samples;Min_cycle;Max_cycle;Signal;HPM_P1;HPM_P2
2023/12/28 00:01:41;;;;;;;3.23;1.70;;;10.80;74.70;;;;;;4961200;28;20226;-89
2023/12/28 00:04:10;;;;;;;0.90;0.90;;;10.80;74.70;;;;;;4955950;28;20285;-90
2023/12/28 00:06:39;;;;;;;2.13;1.00;;;10.70;74.60;;;;;;4958659;28;20209;-91
2023/12/28 00:09:09;;;;;;;1.03;0.93;;;10.70;74.90;;;;;;4955751;28;22246;-87
2023/12/28 00:11:40;;;;;;;0.60;0.60;;;10.70;74.80;;;;;;4958176;28;20195;-89
2023/12/28 00:14:09;;;;;;;1.90;1.20;;;10.60;74.80;;;;;;4960086;28;20182;-88
2023/12/28 00:16:37;;;;;;;0.53;0.53;;;10.60;74.70;;;;;;4960968;28;20401;-89
2023/12/28 00:19:07;;;;;;;1.43;1.30;;;10.60;74.80;;;;;;4960018;28;20230;-89
2023/12/28 00:21:36;;;;;;;1.77;1.47;;;10.50;74.80;;;;;;4949443;28;20207;-88
2023/12/28 00:24:05;;;;;;;1.83;1.37;;;10.50;74.70;;;;;;4957159;28;20198;-89
2023/12/28 00:26:34;;;;;;;0.53;0.53;;;10.50;74.80;;;;;;4953979;28;20202;-89
2023/12/28 00:29:03;;;;;;;0.97;0.97;;;10.40;74.70;;;;;;4959728;28;20217;-89
2023/12/28 00:31:31;;;;;;;1.07;1.03;;;10.40;74.80;;;;;;4960755;28;20567;-89
2023/12/28 00:34:00;;;;;;;1.53;1.43;;;10.40;74.80;;;;;;4960152;28;20215;-89
2023/12/28 00:36:31;;;;;;;4.40;1.73;;;10.30;74.80;;;;;;4962210;28;20198;-87
2023/12/28 00:38:59;;;;;;;4.00;1.93;;;10.30;74.80;;;;;;4960224;28;20665;-89
2023/12/28 00:41:30;;;;;;;1.00;0.97;;;10.30;74.80;;;;;;4962754;28;20184;-90
2023/12/28 00:43:58;;;;;;;4.83;1.60;;;10.20;74.80;;;;;;4962661;28;20207;-90
2023/12/28 00:46:27;;;;;;;0.77;0.77;;;10.20;74.80;;;;;;4959168;28;20301;-88
2023/12/28 00:48:55;;;;;;;1.00;1.00;;;10.20;74.90;;;;;;4960393;28;20298;-88
2023/12/28 00:51:24;;;;;;;0.60;0.60;;;10.20;74.90;;;;;;4958965;28;21577;-89
2023/12/28 00:53:55;;;;;;;0.70;0.70;;;10.10;74.90;;;;;;4959521;28;20254;-90
2023/12/28 00:56:23;;;;;;;0.70;0.70;;;10.10;74.90;;;;;;4961208;28;20234;-88
2023/12/28 00:58:52;;;;;;;4.00;0.80;;;10.10;75.00;;;;;;4958213;28;20229;-88
2023/12/28 01:01:21;;;;;;;0.57;0.57;;;10.00;74.90;;;;;;4960286;28;20201;-89
2023/12/28 01:03:50;;;;;;;0.77;0.77;;;10.00;75.00;;;;;;4959492;28;20258;-88
2023/12/28 01:06:18;;;;;;;1.80;1.70;;;10.00;75.10;;;;;;4961235;28;20206;-90
2023/12/28 01:08:48;;;;;;;1.70;1.53;;;10.00;75.20;;;;;;4956790;28;20282;-90
2023/12/28 01:11:18;;;;;;;2.17;2.07;;;9.90;75.10;;;;;;4956535;28;20199;-90
2023/12/28 01:13:47;;;;;;;0.70;0.70;;;9.90;75.10;;;;;;4952433;28;20211;-90
2023/12/28 01:16:16;;;;;;;0.97;0.77;;;9.90;75.10;;;;;;4958757;28;20230;-90
2023/12/28 01:18:45;;;;;;;1.40;1.17;;;9.90;75.20;;;;;;4961002;28;20804;-89
2023/12/28 01:21:14;;;;;;;1.97;1.03;;;9.80;75.10;;;;;;4958318;28;20206;-90
2023/12/28 01:23:43;;;;;;;1.70;1.10;;;9.80;75.50;;;;;;4960402;28;20206;-91
2023/12/28 01:26:14;;;;;;;2.07;1.43;;;9.70;75.30;;;;;;4959595;28;20203;-90
2023/12/28 01:28:45;;;;;;;2.50;1.53;;;9.70;75.30;;;;;;4960443;28;20590;-90
2023/12/28 01:31:13;;;;;;;2.20;1.00;;;9.60;75.30;;;;;;4958615;28;20206;-90
2023/12/28 01:33:42;;;;;;;1.07;0.93;;;9.60;75.30;;;;;;4960705;28;20206;-91
2023/12/28 01:36:20;;;;;;;1.70;1.60;;;9.60;75.30;;;;;;4958063;28;20206;-89
2023/12/28 01:38:49;;;;;;;1.17;1.07;;;9.50;75.20;;;;;;4959387;28;20206;-90
2023/12/28 01:41:18;;;;;;;0.80;0.80;;;9.50;75.30;;;;;;4953873;28;20235;-90
2023/12/28 01:43:48;;;;;;;0.90;0.87;;;9.50;75.40;;;;;;4949256;28;20237;-86
2023/12/28 01:46:18;;;;;;;1.33;1.23;;;9.40;75.30;;;;;;4954987;28;20234;-87
2023/12/28 01:48:50;;;;;;;1.77;1.57;;;9.30;75.30;;;;;;4966144;28;20230;-89
2023/12/28 01:51:23;;;;;;;4.27;1.63;;;9.30;75.50;;;;;;4956509;28;20299;-90
2023/12/28 01:53:54;;;;;;;5.20;1.77;;;9.30;75.60;;;;;;4954842;28;20673;-89
2023/12/28 01:56:23;;;;;;;1.77;1.60;;;9.30;75.50;;;;;;4956118;28;20201;-90
2023/12/28 01:58:54;;;;;;;3.17;1.73;;;9.20;75.50;;;;;;4959679;28;20234;-90
2023/12/28 02:01:25;;;;;;;1.33;1.27;;;9.20;75.50;;;;;;4955528;28;20222;-88
2023/12/28 02:03:56;;;;;;;1.93;1.63;;;9.20;75.60;;;;;;4960741;28;20202;-88
2023/12/28 02:06:25;;;;;;;1.37;1.27;;;9.20;75.60;;;;;;4959263;28;20217;-88
2023/12/28 02:08:54;;;;;;;2.73;1.17;;;9.10;75.60;;;;;;4950286;28;20222;-88
2023/12/28 02:11:23;;;;;;;0.80;0.80;;;9.10;75.70;;;;;;4958730;28;20245;-89
2023/12/28 02:13:53;;;;;;;1.37;1.27;;;9.10;75.70;;;;;;4952680;28;20213;-89
2023/12/28 02:16:27;;;;;;;1.27;1.17;;;9.00;75.70;;;;;;4959493;28;20194;-90
2023/12/28 02:19:00;;;;;;;4.77;2.43;;;9.00;75.80;;;;;;4958915;28;20199;-91
2023/12/28 02:21:30;;;;;;;3.50;1.07;;;9.00;75.80;;;;;;4953956;28;20202;-89
2023/12/28 02:23:58;;;;;;;2.73;1.43;;;9.00;75.80;;;;;;4956214;28;20300;-88
2023/12/28 02:26:29;;;;;;;1.13;1.03;;;8.90;75.80;;;;;;4958869;28;20198;-89
2023/12/28 02:28:57;;;;;;;2.43;1.27;;;8.90;75.80;;;;;;4956537;28;20337;-89
2023/12/28 02:31:33;;;;;;;2.90;1.83;;;8.90;75.90;;;;;;4957573;28;20198;-89
2023/12/28 02:34:10;;;;;;;0.60;0.60;;;8.90;76.00;;;;;;4958164;28;20244;-89
2023/12/28 02:36:42;;;;;;;1.53;1.00;;;8.90;76.00;;;;;;4950731;28;20214;-90
2023/12/28 02:39:15;;;;;;;1.93;1.17;;;8.80;76.00;;;;;;4959532;28;20245;-89
2023/12/28 02:41:46;;;;;;;3.10;1.60;;;8.80;76.10;;;;;;4958706;28;20292;-90
2023/12/28 02:44:15;;;;;;;1.93;1.83;;;8.80;76.10;;;;;;4955306;28;20289;-88
2023/12/28 02:46:47;;;;;;;1.40;1.30;;;8.80;76.20;;;;;;4953393;28;20210;-88
2023/12/28 02:49:16;;;;;;;5.40;1.70;;;8.70;76.30;;;;;;4955670;28;20260;-90
2023/12/28 02:51:45;;;;;;;1.07;1.00;;;8.70;76.70;;;;;;4954538;28;20226;-89
2023/12/28 02:54:14;;;;;;;1.27;1.17;;;8.70;76.70;;;;;;4950251;28;20210;-88
2023/12/28 02:56:42;;;;;;;1.03;1.00;;;8.60;76.70;;;;;;4955487;28;20217;-89
2023/12/28 02:59:15;;;;;;;1.60;1.50;;;8.60;76.90;;;;;;4953331;28;20285;-90
2023/12/28 03:01:44;;;;;;;2.07;1.93;;;8.60;77.20;;;;;;4955789;28;20258;-89
2023/12/28 03:04:13;;;;;;;2.43;1.20;;;8.60;77.20;;;;;;4959500;28;20205;-89
2023/12/28 03:06:42;;;;;;;0.60;0.60;;;8.60;77.10;;;;;;4962250;28;20198;-89
2023/12/28 03:09:11;;;;;;;2.47;1.70;;;8.50;77.20;;;;;;4956819;28;20236;-89
2023/12/28 03:11:40;;;;;;;1.50;1.40;;;8.50;77.40;;;;;;4955847;28;20202;-88
2023/12/28 03:14:08;;;;;;;4.03;1.00;;;8.50;77.30;;;;;;4958221;28;20292;-88
2023/12/28 03:16:38;;;;;;;0.90;0.90;;;8.50;77.50;;;;;;4957926;28;20198;-89
2023/12/28 03:19:07;;;;;;;4.67;2.43;;;8.40;77.60;;;;;;4960930;28;20212;-89
2023/12/28 03:21:40;;;;;;;1.43;1.33;;;8.40;77.50;;;;;;4959711;28;20209;-87
2023/12/28 03:24:09;;;;;;;1.80;1.50;;;8.40;77.50;;;;;;4958736;28;20213;-89
2023/12/28 03:26:40;;;;;;;4.93;2.40;;;8.30;77.30;;;;;;4959334;28;20742;-88
2023/12/28 03:29:09;;;;;;;1.57;1.47;;;8.30;77.40;;;;;;4962234;28;20221;-88
2023/12/28 03:31:42;;;;;;;1.77;1.17;;;8.30;77.30;;;;;;4955684;28;20199;-87
2023/12/28 03:34:13;;;;;;;2.63;1.37;;;8.30;77.30;;;;;;4956561;28;20343;-88
2023/12/28 03:36:42;;;;;;;1.33;1.23;;;8.30;77.30;;;;;;4959791;28;20220;-84
2023/12/28 03:39:11;;;;;;;2.30;1.40;;;8.20;77.30;;;;;;4959099;28;20209;-85
2023/12/28 03:41:39;;;;;;;2.27;2.07;;;8.20;77.30;;;;;;4963761;28;20280;-85
2023/12/28 03:44:08;;;;;;;0.93;0.93;;;8.20;77.30;;;;;;4955905;28;20293;-85
2023/12/28 03:46:37;;;;;;;1.90;1.10;;;8.20;77.20;;;;;;4953732;28;20203;-85
2023/12/28 03:49:07;;;;;;;1.90;1.80;;;8.20;77.20;;;;;;4961781;28;20236;-84
2023/12/28 03:51:38;;;;;;;1.70;1.50;;;8.10;77.20;;;;;;4959356;28;20229;-85
2023/12/28 03:54:09;;;;;;;0.90;0.90;;;8.10;77.20;;;;;;4955813;28;20276;-85
2023/12/28 03:56:39;;;;;;;3.70;1.87;;;8.10;77.20;;;;;;4956877;28;20206;-85
2023/12/28 03:59:08;;;;;;;1.77;1.67;;;8.10;77.20;;;;;;4960547;28;20316;-84
2023/12/28 04:01:40;;;;;;;0.93;0.93;;;8.10;77.30;;;;;;4959742;28;20205;-85
2023/12/28 04:04:10;;;;;;;0.90;0.90;;;8.10;77.20;;;;;;4961317;28;20206;-88
2023/12/28 04:06:41;;;;;;;1.87;1.77;;;8.10;77.20;;;;;;4960423;28;20201;-87
2023/12/28 04:09:12;;;;;;;1.70;1.60;;;8.10;77.30;;;;;;4955899;28;20210;-87
2023/12/28 04:14:23;;;;;;;5.97;1.53;;;8.00;77.30;;;;;;4958363;28;20284;-88
2023/12/28 04:16:52;;;;;;;3.23;1.60;;;8.00;77.40;;;;;;4955843;28;20288;-88
2023/12/28 04:19:22;;;;;;;1.97;1.80;;;8.00;77.40;;;;;;4955177;28;20472;-87
2023/12/28 04:21:51;;;;;;;1.63;1.53;;;8.00;77.50;;;;;;4970957;28;20213;-86
2023/12/28 04:24:19;;;;;;;1.83;1.13;;;8.00;77.50;;;;;;4953287;28;20209;-88
2023/12/28 04:26:48;;;;;;;1.57;1.47;;;8.00;78.60;;;;;;4951925;28;20203;-89
2023/12/28 04:29:17;;;;;;;1.30;1.17;;;8.00;77.60;;;;;;4955463;28;20225;-90
2023/12/28 04:31:46;;;;;;;3.93;1.23;;;8.00;77.70;;;;;;4957682;28;20272;-90
2023/12/28 04:34:15;;;;;;;2.07;1.97;;;8.00;77.80;;;;;;4958459;28;20665;-89
2023/12/28 04:36:46;;;;;;;3.37;2.30;;;8.00;77.80;;;;;;4954493;28;20247;-90
2023/12/28 04:39:15;;;;;;;0.90;0.90;;;8.00;77.80;;;;;;4957621;28;20206;-89
2023/12/28 04:41:44;;;;;;;2.10;2.00;;;7.90;77.70;;;;;;4958513;28;20194;-89
2023/12/28 04:44:12;;;;;;;0.90;0.90;;;7.90;77.70;;;;;;4957815;28;20198;-89
2023/12/28 04:46:42;;;;;;;2.87;1.23;;;7.90;77.80;;;;;;4957515;28;20233;-89
2023/12/28 04:49:12;;;;;;;1.03;0.93;;;7.90;77.70;;;;;;4957193;28;20197;-89
2023/12/28 04:51:45;;;;;;;0.60;0.60;;;7.90;77.80;;;;;;4957497;28;20198;-90
2023/12/28 04:54:15;;;;;;;0.90;0.90;;;7.90;77.80;;;;;;4956919;28;20680;-90
2023/12/28 04:56:43;;;;;;;2.17;1.83;;;7.90;78.00;;;;;;4959807;28;20669;-87
2023/12/28 04:59:12;;;;;;;2.73;2.43;;;7.90;78.00;;;;;;4960405;28;20323;-87
2023/12/28 05:01:44;;;;;;;11.03;2.20;;;7.80;77.90;;;;;;4958385;28;20206;-86
2023/12/28 05:04:13;;;;;;;2.90;2.40;;;7.80;77.80;;;;;;4955025;28;20207;-88
2023/12/28 05:06:47;;;;;;;1.60;1.50;;;7.80;77.80;;;;;;4955059;28;20214;-88
2023/12/28 05:09:16;;;;;;;2.07;1.40;;;7.80;77.80;;;;;;4955126;28;20210;-87
2023/12/28 05:11:44;;;;;;;1.73;1.63;;;7.80;77.90;;;;;;4954084;28;20212;-85
2023/12/28 05:14:13;;;;;;;3.03;2.47;;;7.80;77.90;;;;;;4951177;28;20578;-87
2023/12/28 05:16:41;;;;;;;2.83;2.43;;;7.70;78.00;;;;;;4950075;28;20272;-87
2023/12/28 05:19:13;;;;;;;2.90;2.63;;;7.70;77.80;;;;;;4955745;28;20198;-88
2023/12/28 05:21:42;;;;;;;3.40;3.10;;;7.70;77.80;;;;;;4954014;28;20207;-84
2023/12/28 05:24:12;;;;;;;11.43;2.50;;;7.70;77.80;;;;;;4949483;28;20260;-86
2023/12/28 05:26:41;;;;;;;2.63;2.13;;;7.70;77.80;;;;;;4953432;28;20212;-86
2023/12/28 05:29:10;;;;;;;3.03;1.87;;;7.70;77.80;;;;;;4950384;28;20764;-84
2023/12/28 05:31:39;;;;;;;1.97;1.77;;;7.70;77.80;;;;;;4954700;28;20241;-84
2023/12/28 05:34:08;;;;;;;4.07;1.87;;;7.70;77.90;;;;;;4949798;28;20225;-85
2023/12/28 05:36:37;;;;;;;1.90;1.80;;;7.70;77.90;;;;;;4954357;28;20200;-84
2023/12/28 05:39:06;;;;;;;5.20;2.53;;;7.70;77.90;;;;;;4959889;28;20565;-84
2023/12/28 05:41:36;;;;;;;0.50;0.50;;;7.60;77.80;;;;;;4952508;28;20284;-85
2023/12/28 05:44:05;;;;;;;1.00;1.00;;;7.60;78.00;;;;;;4955790;28;20213;-84
2023/12/28 05:46:34;;;;;;;2.50;1.83;;;7.60;78.20;;;;;;4956996;28;20659;-88
2023/12/28 05:49:03;;;;;;;2.30;1.70;;;7.60;78.10;;;;;;4957227;28;20233;-87
2023/12/28 05:51:39;;;;;;;0.80;0.80;;;7.60;78.10;;;;;;4955982;28;20282;-86
2023/12/28 05:54:09;;;;;;;2.70;2.33;;;7.60;78.10;;;;;;4957541;28;20297;-86
2023/12/28 05:56:39;;;;;;;0.60;0.60;;;7.60;78.10;;;;;;4949439;28;20211;-85
2023/12/28 05:59:08;;;;;;;2.03;1.83;;;7.60;78.10;;;;;;4950055;28;20268;-87
2023/12/28 06:01:43;;;;;;;2.77;1.60;;;7.60;78.10;;;;;;4953349;28;20713;-87
2023/12/28 06:04:12;;;;;;;1.67;1.57;;;7.60;78.30;;;;;;4953350;28;20201;-87
2023/12/28 06:06:42;;;;;;;1.77;1.57;;;7.60;78.20;;;;;;4951001;28;20220;-88
2023/12/28 06:09:11;;;;;;;3.33;1.90;;;7.60;78.40;;;;;;4953935;28;20262;-88
2023/12/28 06:11:42;;;;;;;1.27;1.20;;;7.60;78.30;;;;;;4955978;28;20375;-87
2023/12/28 06:14:11;;;;;;;1.53;1.37;;;7.60;78.30;;;;;;4954069;28;20211;-87
2023/12/28 06:16:40;;;;;;;0.70;0.70;;;7.70;78.40;;;;;;4951500;28;20205;-85
2023/12/28 06:19:09;;;;;;;4.43;1.37;;;7.70;78.30;;;;;;4949345;28;20256;-85
2023/12/28 06:21:39;;;;;;;2.03;1.50;;;7.70;78.20;;;;;;4950445;28;20741;-84
2023/12/28 06:24:07;;;;;;;1.73;1.60;;;7.80;78.20;;;;;;4954857;28;20208;-83
2023/12/28 06:26:42;;;;;;;1.17;1.10;;;7.80;78.30;;;;;;4953674;28;20655;-84
2023/12/28 06:29:11;;;;;;;1.43;1.33;;;7.80;78.30;;;;;;4955755;28;20200;-84
2023/12/28 06:31:40;;;;;;;2.57;1.57;;;7.80;78.20;;;;;;4954679;28;20249;-87
2023/12/28 06:34:09;;;;;;;2.75;2.40;;;7.80;78.20;;;;;;4953208;28;20956;-87
2023/12/28 06:36:38;;;;;;;4.70;2.77;;;7.80;78.30;;;;;;4952550;28;20247;-89
2023/12/28 06:39:08;;;;;;;1.00;1.00;;;7.80;78.50;;;;;;4956327;28;20274;-90
2023/12/28 06:41:36;;;;;;;1.50;1.40;;;7.80;78.60;;;;;;4957964;28;20265;-91
2023/12/28 06:44:08;;;;;;;2.03;1.87;;;7.80;78.60;;;;;;4952526;28;20253;-90
2023/12/28 06:46:37;;;;;;;1.67;1.57;;;7.80;78.60;;;;;;4956513;28;20232;-91
2023/12/28 06:49:06;;;;;;;4.47;2.27;;;7.80;78.60;;;;;;4956109;28;20213;-91
2023/12/28 06:51:39;;;;;;;1.87;1.77;;;7.80;78.70;;;;;;4953546;28;20249;-91
2023/12/28 06:54:08;;;;;;;3.50;3.07;;;7.90;78.80;;;;;;4953468;28;20217;-91
2023/12/28 06:56:36;;;;;;;5.43;2.47;;;7.90;78.80;;;;;;4952961;28;20213;-92
2023/12/28 06:59:07;;;;;;;2.77;2.20;;;7.90;78.80;;;;;;4955508;28;20230;-87
2023/12/28 07:01:36;;;;;;;1.83;1.50;;;7.90;78.90;;;;;;4956358;28;20202;-92
2023/12/28 07:04:05;;;;;;;1.83;1.67;;;8.00;78.90;;;;;;4960876;28;20362;-91
2023/12/28 07:06:34;;;;;;;1.87;1.73;;;8.00;78.80;;;;;;4957736;28;20199;-91
2023/12/28 07:09:04;;;;;;;5.20;1.70;;;8.00;78.80;;;;;;4954948;28;20220;-92
2023/12/28 07:11:33;;;;;;;1.93;1.83;;;8.10;78.90;;;;;;4957082;28;20222;-92
2023/12/28 07:14:01;;;;;;;2.67;2.13;;;8.20;78.90;;;;;;4957143;28;20217;-92
2023/12/28 07:16:35;;;;;;;0.80;0.80;;;8.30;78.90;;;;;;4957683;28;20189;-95
2023/12/28 07:19:04;;;;;;;2.33;1.70;;;8.40;78.80;;;;;;4962119;28;20206;-94
2023/12/28 07:21:33;;;;;;;2.40;1.70;;;8.40;78.70;;;;;;4953184;28;20199;-91
2023/12/28 07:24:03;;;;;;;2.80;2.07;;;8.50;78.60;;;;;;4955170;28;20202;-90
2023/12/28 07:26:32;;;;;;;2.50;1.87;;;8.50;78.50;;;;;;4959272;28;20237;-92
2023/12/28 07:29:01;;;;;;;2.50;2.30;;;8.60;78.50;;;;;;4953679;28;20261;-90
2023/12/28 07:31:32;;;;;;;1.80;1.70;;;8.70;78.50;;;;;;4960712;28;20214;-90
2023/12/28 07:34:01;;;;;;;0.63;0.63;;;8.70;78.50;;;;;;4959956;28;20198;-91
2023/12/28 07:36:30;;;;;;;8.73;2.10;;;8.80;78.40;;;;;;4955096;28;20221;-93
2023/12/28 07:38:59;;;;;;;2.83;2.20;;;8.90;78.20;;;;;;4956980;28;20225;-92
2023/12/28 07:41:29;;;;;;;4.30;1.53;;;8.90;77.70;;;;;;4955791;28;20205;-92
2023/12/28 07:43:57;;;;;;;1.90;1.77;;;9.00;77.50;;;;;;4956536;28;20202;-93
2023/12/28 07:46:27;;;;;;;2.63;2.40;;;9.10;77.60;;;;;;4954502;28;20206;-93
2023/12/28 07:48:57;;;;;;;3.10;2.90;;;9.20;77.60;;;;;;4953465;28;20203;-90
2023/12/28 07:51:26;;;;;;;2.33;2.13;;;9.20;77.30;;;;;;4964047;28;20222;-90
2023/12/28 07:53:55;;;;;;;1.97;1.70;;;9.30;77.40;;;;;;4958816;28;20202;-89
2023/12/28 07:56:24;;;;;;;2.00;1.90;;;9.30;77.40;;;;;;4957470;28;20588;-90
2023/12/28 07:58:53;;;;;;;1.80;1.57;;;9.40;77.30;;;;;;4956873;28;20226;-91
2023/12/28 08:01:25;;;;;;;0.80;0.80;;;9.50;77.20;;;;;;4965310;28;20603;-89
2023/12/28 08:03:53;;;;;;;3.23;1.90;;;9.60;77.10;;;;;;4953729;28;20214;-88
2023/12/28 08:06:24;;;;;;;0.90;0.90;;;9.70;77.10;;;;;;4957749;28;20215;-88
2023/12/28 08:08:53;;;;;;;1.50;1.37;;;9.80;77.10;;;;;;4957667;28;20221;-88
2023/12/28 08:11:22;;;;;;;2.33;2.00;;;9.90;77.10;;;;;;4959298;28;20257;-91
2023/12/28 08:13:51;;;;;;;0.70;0.70;;;10.00;76.90;;;;;;4961739;28;20210;-92
2023/12/28 08:16:20;;;;;;;3.60;2.43;;;10.00;76.90;;;;;;4959104;28;20294;-91
2023/12/28 08:18:49;;;;;;;1.53;1.13;;;10.10;76.90;;;;;;4961563;28;20305;-91
2023/12/28 08:21:19;;;;;;;1.83;0.90;;;10.20;76.90;;;;;;4967088;28;20370;-92
2023/12/28 08:23:49;;;;;;;2.73;2.23;;;10.30;76.70;;;;;;4960381;28;20242;-92
2023/12/28 08:26:22;;;;;;;1.50;1.30;;;10.40;76.40;;;;;;4959166;28;20292;-91
2023/12/28 08:28:51;;;;;;;4.87;2.00;;;10.50;76.50;;;;;;4960932;28;20206;-91
2023/12/28 08:31:20;;;;;;;5.13;2.03;;;10.60;76.30;;;;;;4959156;28;20549;-91
2023/12/28 08:33:49;;;;;;;2.13;1.57;;;10.60;76.30;;;;;;4963164;28;20382;-91
2023/12/28 08:36:18;;;;;;;3.10;2.63;;;10.70;76.20;;;;;;4961121;28;20257;-91
2023/12/28 08:38:49;;;;;;;1.60;1.50;;;10.80;76.40;;;;;;4955633;28;20695;-91
2023/12/28 08:41:21;;;;;;;6.60;3.20;;;10.90;76.50;;;;;;4954809;28;20673;-90
2023/12/28 08:43:50;;;;;;;3.57;2.47;;;11.00;76.30;;;;;;4960410;28;20262;-90
2023/12/28 08:46:19;;;;;;;4.57;2.30;;;11.00;76.30;;;;;;4956675;28;20202;-89
2023/12/28 08:48:48;;;;;;;8.83;4.07;;;11.10;76.30;;;;;;4955792;28;20214;-88
2023/12/28 08:51:17;;;;;;;1.70;1.60;;;11.20;76.40;;;;;;4957728;28;20410;-91
2023/12/28 08:53:46;;;;;;;3.23;2.30;;;11.30;76.60;;;;;;4954863;28;20252;-87
2023/12/28 08:56:17;;;;;;;1.23;1.00;;;11.40;76.80;;;;;;4955362;28;20222;-87
2023/12/28 08:58:47;;;;;;;3.43;2.00;;;11.40;76.70;;;;;;4958356;28;20273;-88
2023/12/28 09:01:18;;;;;;;2.13;1.23;;;11.50;76.60;;;;;;4959128;28;20229;-85
2023/12/28 09:03:49;;;;;;;1.80;1.70;;;11.50;76.50;;;;;;4951778;28;20227;-87
2023/12/28 09:06:18;;;;;;;2.17;1.97;;;11.50;76.40;;;;;;4959382;28;20198;-85
2023/12/28 09:08:51;;;;;;;4.43;1.97;;;11.60;76.50;;;;;;4949883;28;20214;-89
2023/12/28 09:11:21;;;;;;;1.80;1.70;;;11.70;76.50;;;;;;4952735;28;20229;-88
2023/12/28 09:13:50;;;;;;;2.07;1.50;;;11.70;76.50;;;;;;4954234;28;20814;-86
2023/12/28 09:16:19;;;;;;;3.10;1.70;;;11.80;76.60;;;;;;4955935;28;20205;-88
2023/12/28 09:18:48;;;;;;;2.50;1.43;;;11.90;76.30;;;;;;4956411;28;20197;-85
2023/12/28 09:21:17;;;;;;;2.20;2.00;;;11.90;76.10;;;;;;4952430;28;20206;-85
2023/12/28 09:23:46;;;;;;;2.13;1.43;;;12.00;76.40;;;;;;4947711;28;20222;-85
2023/12/28 09:26:14;;;;;;;1.50;1.40;;;12.10;76.30;;;;;;4958833;28;20636;-87
2023/12/28 09:28:45;;;;;;;3.50;1.93;;;12.20;76.10;;;;;;4957089;28;20236;-87
2023/12/28 09:31:14;;;;;;;2.10;1.90;;;12.30;76.00;;;;;;4951307;28;20567;-87
2023/12/28 09:33:44;;;;;;;2.17;1.97;;;12.30;76.00;;;;;;4957560;28;20229;-85
2023/12/28 09:36:14;;;;;;;3.23;2.47;;;12.40;75.50;;;;;;4951950;28;20202;-87
2023/12/28 09:38:43;;;;;;;1.70;1.60;;;12.50;75.60;;;;;;4953816;28;20408;-84
2023/12/28 09:41:14;;;;;;;5.27;2.17;;;12.50;74.80;;;;;;4960111;28;20194;-89
2023/12/28 09:43:54;;;;;;;4.43;2.47;;;12.60;75.30;;;;;;4956982;28;20214;-88
2023/12/28 09:46:26;;;;;;;5.23;2.63;;;12.70;75.10;;;;;;4955985;28;20206;-88
2023/12/28 09:48:56;;;;;;;6.17;1.80;;;12.80;75.00;;;;;;4960010;28;20276;-89
2023/12/28 09:51:26;;;;;;;1.37;0.93;;;12.80;74.50;;;;;;4957085;28;20210;-84
2023/12/28 09:53:55;;;;;;;7.97;1.90;;;12.90;74.70;;;;;;4953436;28;20705;-85
2023/12/28 09:56:24;;;;;;;3.17;2.23;;;12.90;74.50;;;;;;4955353;28;20199;-84
2023/12/28 09:59:00;;;;;;;2.13;1.97;;;12.90;73.90;;;;;;4950655;28;20227;-86
2023/12/28 10:01:28;;;;;;;3.50;2.70;;;13.00;74.10;;;;;;4956652;28;20206;-84
2023/12/28 10:03:57;;;;;;;4.37;2.73;;;13.00;74.00;;;;;;4955599;28;20203;-86
2023/12/28 10:06:27;;;;;;;1.67;1.47;;;13.00;73.80;;;;;;4953955;28;20202;-85
2023/12/28 10:08:55;;;;;;;1.30;0.90;;;13.00;73.60;;;;;;4951414;28;20217;-85
2023/12/28 10:11:26;;;;;;;1.70;1.37;;;13.10;73.80;;;;;;4954971;28;20928;-86
2023/12/28 10:13:55;;;;;;;2.30;2.10;;;13.10;73.70;;;;;;4948925;28;20226;-84
2023/12/28 10:16:25;;;;;;;2.13;1.97;;;13.20;73.30;;;;;;4956003;28;20568;-85
2023/12/28 10:18:57;;;;;;;2.07;1.90;;;13.20;72.80;;;;;;4953754;28;20206;-87
2023/12/28 10:21:26;;;;;;;2.50;2.23;;;13.20;73.00;;;;;;4955905;28;20197;-84
2023/12/28 10:23:55;;;;;;;3.20;2.73;;;13.20;72.40;;;;;;4945529;28;20218;-84
2023/12/28 10:26:25;;;;;;;9.77;4.10;;;13.30;72.40;;;;;;4952040;28;20241;-86
2023/12/28 10:29:00;;;;;;;2.13;1.93;;;13.30;71.80;;;;;;4953114;28;20552;-84
2023/12/28 10:31:30;;;;;;;2.37;2.17;;;13.20;71.90;;;;;;4950388;28;20202;-83
2023/12/28 10:34:02;;;;;;;4.77;2.90;;;13.30;72.20;;;;;;4946774;28;20781;-82
2023/12/28 10:36:32;;;;;;;2.30;1.80;;;13.30;72.70;;;;;;4954255;28;20244;-86
2023/12/28 10:39:04;;;;;;;2.00;1.80;;;13.30;72.50;;;;;;4955931;28;20222;-84
2023/12/28 10:41:35;;;;;;;2.67;2.47;;;13.30;71.80;;;;;;4956209;28;20206;-86
2023/12/28 10:44:05;;;;;;;7.73;2.63;;;13.20;71.40;;;;;;4952668;28;20203;-85
2023/12/28 10:46:44;;;;;;;1.70;1.60;;;13.30;71.60;;;;;;4959587;28;20210;-84
2023/12/28 10:49:18;;;;;;;2.53;2.03;;;13.20;71.60;;;;;;4956598;28;20198;-88
2023/12/28 10:51:52;;;;;;;1.43;1.33;;;13.30;71.90;;;;;;4958809;28;20209;-87
2023/12/28 10:54:43;;;;;;;19.53;2.40;;;13.40;71.80;;;;;;4956334;28;20219;-86
2023/12/28 10:57:23;;;;;;;1.73;1.63;;;13.40;71.60;;;;;;4952607;28;20205;-88
2023/12/28 11:00:01;;;;;;;2.00;1.07;;;13.50;71.80;;;;;;4954802;28;20206;-89
2023/12/28 11:02:39;;;;;;;3.07;1.77;;;13.50;71.40;;;;;;4956390;28;20217;-85
2023/12/28 11:05:09;;;;;;;2.20;1.67;;;13.50;71.50;;;;;;4952649;28;20206;-87
2023/12/28 11:07:39;;;;;;;5.07;2.13;;;13.60;71.90;;;;;;4951851;28;20194;-88
2023/12/28 11:10:10;;;;;;;1.80;1.70;;;13.70;71.90;;;;;;4950399;28;20221;-94
2023/12/28 11:12:39;;;;;;;1.17;1.10;;;13.80;71.50;;;;;;4957855;28;20305;-92
2023/12/28 11:15:11;;;;;;;5.93;2.47;;;13.80;71.60;;;;;;4954624;28;20241;-92
2023/12/28 11:17:42;;;;;;;1.70;1.23;;;13.90;71.50;;;;;;4955216;28;20229;-89
2023/12/28 11:20:13;;;;;;;2.73;1.30;;;13.90;70.40;;;;;;4952722;28;20600;-90
2023/12/28 11:22:46;;;;;;;2.55;1.98;;;13.90;70.60;;;;;;4956096;28;20457;-87
2023/12/28 11:25:18;;;;;;;3.53;2.43;;;13.90;70.70;;;;;;4952588;28;20607;-86
2023/12/28 11:27:47;;;;;;;1.17;1.07;;;14.00;70.60;;;;;;4953356;28;20225;-85
2023/12/28 11:30:16;;;;;;;5.90;1.67;;;14.00;70.80;;;;;;4954519;28;20206;-86
2023/12/28 11:32:47;;;;;;;2.10;1.70;;;14.00;70.50;;;;;;4954996;28;20206;-88
2023/12/28 11:35:17;;;;;;;3.53;1.50;;;14.00;70.10;;;;;;4954346;28;20210;-89
2023/12/28 11:37:49;;;;;;;8.47;2.80;;;14.00;70.10;;;;;;4961440;28;20664;-89
2023/12/28 11:40:20;;;;;;;2.43;1.43;;;14.00;69.70;;;;;;4959567;28;20206;-87
2023/12/28 11:42:52;;;;;;;1.73;1.60;;;14.10;69.90;;;;;;4966287;28;20205;-87
2023/12/28 11:45:23;;;;;;;2.40;2.00;;;14.20;70.00;;;;;;4961497;28;20234;-89
2023/12/28 11:48:02;;;;;;;7.70;3.00;;;14.20;69.10;;;;;;4957627;28;20206;-88
2023/12/28 11:50:32;;;;;;;3.43;2.37;;;14.20;68.90;;;;;;4951895;28;20202;-89
2023/12/28 11:53:01;;;;;;;2.50;1.50;;;14.30;68.20;;;;;;4964769;28;20554;-88
2023/12/28 11:55:30;;;;;;;3.17;2.50;;;14.30;68.90;;;;;;4956902;28;20202;-89
2023/12/28 11:57:59;;;;;;;1.97;1.43;;;14.40;69.30;;;;;;4956711;28;20286;-89
2023/12/28 12:00:28;;;;;;;7.63;2.20;;;14.40;68.00;;;;;;4961848;28;20229;-88
2023/12/28 12:02:58;;;;;;;3.03;1.47;;;14.40;68.00;;;;;;4958592;28;21703;-89
2023/12/28 12:05:29;;;;;;;2.03;1.70;;;14.50;68.30;;;;;;4969274;28;20285;-88
2023/12/28 12:07:58;;;;;;;2.30;1.50;;;14.50;68.20;;;;;;4960523;28;20210;-89
2023/12/28 12:10:27;;;;;;;2.50;2.30;;;14.50;68.10;;;;;;4960335;28;20202;-89
2023/12/28 12:12:58;;;;;;;7.20;2.80;;;14.60;68.10;;;;;;4955366;28;20238;-91
2023/12/28 12:15:29;;;;;;;1.73;1.47;;;14.70;68.30;;;;;;4958983;28;20277;-86
2023/12/28 12:17:58;;;;;;;6.47;3.13;;;14.70;68.50;;;;;;4959993;28;20207;-87
2023/12/28 12:20:29;;;;;;;2.90;2.00;;;14.80;68.40;;;;;;4956417;28;20266;-87
2023/12/28 12:23:00;;;;;;;1.43;0.90;;;14.90;68.40;;;;;;4958758;28;20207;-87
2023/12/28 12:25:30;;;;;;;1.70;1.30;;;14.90;67.80;;;;;;4955552;28;20221;-87
2023/12/28 12:27:59;;;;;;;1.73;1.40;;;14.90;67.20;;;;;;4955528;28;20226;-87
2023/12/28 12:30:27;;;;;;;4.80;3.03;;;15.00;67.90;;;;;;4956483;28;20627;-85
2023/12/28 12:32:57;;;;;;;2.67;2.10;;;15.00;67.80;;;;;;4952563;28;20185;-84
2023/12/28 12:35:26;;;;;;;2.87;1.67;;;15.00;67.40;;;;;;4955593;28;20226;-84
2023/12/28 12:37:56;;;;;;;4.47;2.10;;;15.00;67.50;;;;;;4955181;28;20971;-85
2023/12/28 12:40:26;;;;;;;2.67;2.37;;;15.00;67.50;;;;;;4952807;28;20206;-87
2023/12/28 12:42:55;;;;;;;7.90;3.50;;;15.10;67.70;;;;;;4954607;28;20203;-85
2023/12/28 12:45:25;;;;;;;3.13;2.83;;;15.10;67.50;;;;;;4957198;28;20199;-83
2023/12/28 12:47:54;;;;;;;4.33;2.87;;;15.10;67.10;;;;;;4956653;28;20233;-85
2023/12/28 12:50:23;;;;;;;2.17;1.97;;;15.10;67.40;;;;;;4956302;28;20203;-86
2023/12/28 12:52:52;;;;;;;5.07;2.90;;;15.10;67.50;;;;;;4958633;28;20226;-89
2023/12/28 12:55:22;;;;;;;3.43;2.53;;;15.10;67.30;;;;;;4957200;28;20218;-85
2023/12/28 12:57:55;;;;;;;6.27;2.73;;;15.00;66.80;;;;;;4951087;28;20242;-85
2023/12/28 13:00:24;;;;;;;2.40;2.00;;;15.10;67.00;;;;;;4957983;28;20606;-86
2023/12/28 13:02:55;;;;;;;4.73;2.63;;;15.20;67.70;;;;;;4951942;28;20301;-85
2023/12/28 13:05:26;;;;;;;2.37;1.67;;;15.30;67.60;;;;;;4953342;28;20257;-82
2023/12/28 13:07:55;;;;;;;1.53;1.37;;;15.30;67.00;;;;;;4954458;28;20655;-82
2023/12/28 13:10:25;;;;;;;2.30;1.70;;;15.60;67.90;;;;;;4956762;28;20241;-82